Terminal Aerodrome Forecast
Issued by NWS

Home | Current Version | Previous Version | Text Only | Print | Product List | Glossary On
Versions: 1 2 3 4 5 6 7 8 9 10 11 12 13 14 15
000
FTUS45 KABQ 192100 AAA
TAFROW
TAF AMD
KROW 192105Z 1921/2018 30003KT P6SM VCTS BKN015 BKN080CB
     FM192200 15010KT P6SM SCT015 BKN080
      TEMPO 2000/2002 6SM -TSRA SCT015 BKN080CB
     FM200200 21010KT P6SM BKN100
     FM201400 33005KT P6SM BKN100=

USA.gov is the U.S. government's official web portal to all federal, state and local government web resources and services.